Time;durP1;ratioP1;P1;durP2;ratioP2;P2;SDS_P1;SDS_P2;PMS_P1;PMS_P2;Temp;Humidity;BMP_temperature;BMP_pressure;BME280_temperature;BME280_humidity;BME280_pressure;Samples;Min_cycle;Max_cycle;Signal;HPM_P1;HPM_P2
2021/05/18 00:02:30;;;;;;;4.63;2.22;;;20.80;32.60;;;;;;20913477;28;20049;-68
2021/05/18 00:12:32;;;;;;;5.63;1.52;;;20.70;32.90;;;;;;20912802;28;20072;-69
2021/05/18 00:22:33;;;;;;;5.93;1.88;;;20.70;33.20;;;;;;20913023;28;20131;-68
2021/05/18 00:32:35;;;;;;;3.38;1.67;;;20.70;33.30;;;;;;20911998;28;20110;-68
2021/05/18 00:42:51;;;;;;;14.63;5.22;;;20.60;33.10;;;;;;20911446;28;20091;-69
2021/05/18 00:52:52;;;;;;;4.00;1.80;;;20.60;33.40;;;;;;20911196;28;20084;-68
2021/05/18 01:02:54;;;;;;;3.83;2.00;;;20.40;34.60;;;;;;20911599;28;20552;-69
2021/05/18 01:12:55;;;;;;;3.78;1.42;;;20.40;34.00;;;;;;20918489;28;20121;-68
2021/05/18 01:22:56;;;;;;;7.82;2.30;;;20.20;34.40;;;;;;20927502;28;20049;-68
2021/05/18 01:32:58;;;;;;;3.38;2.10;;;20.10;35.60;;;;;;20926870;28;20501;-69
2021/05/18 01:43:00;;;;;;;6.88;2.10;;;20.00;36.90;;;;;;20926153;28;20513;-67
2021/05/18 01:53:02;;;;;;;5.10;1.73;;;19.70;38.00;;;;;;20924318;28;20064;-67
2021/05/18 02:03:04;;;;;;;5.40;1.80;;;19.60;38.50;;;;;;20925477;28;20542;-67
2021/05/18 02:13:05;;;;;;;7.20;2.13;;;19.40;38.90;;;;;;20922287;28;20057;-68
2021/05/18 02:33:26;;;;;;;3.88;1.30;;;18.70;39.80;;;;;;20919923;28;20079;-68
2021/05/18 02:43:34;;;;;;;4.50;1.30;;;18.50;39.70;;;;;;20920624;28;20103;-69
2021/05/18 02:53:35;;;;;;;3.40;1.20;;;18.30;39.90;;;;;;20919447;28;20068;-67
2021/05/18 03:03:37;;;;;;;3.53;1.08;;;18.20;39.50;;;;;;20919170;28;20088;-69
2021/05/18 03:13:38;;;;;;;4.60;1.45;;;18.30;39.10;;;;;;20918158;28;20509;-67
2021/05/18 03:23:40;;;;;;;2.65;1.23;;;18.30;39.00;;;;;;20917105;28;20068;-68
2021/05/18 03:44:12;;;;;;;7.40;2.17;;;18.20;42.00;;;;;;20916175;28;20100;-68
2021/05/18 04:04:35;;;;;;;4.13;1.50;;;17.80;43.30;;;;;;20914481;28;20486;-67
2021/05/18 04:25:24;;;;;;;4.07;1.17;;;17.20;44.10;;;;;;20913580;28;19928;-68
2021/05/18 05:06:42;;;;;;;3.03;1.27;;;16.90;45.30;;;;;;20939258;28;20068;-68
2021/05/18 05:16:43;;;;;;;247.85;29.25;;;16.90;46.10;;;;;;20937153;28;20045;-68
2021/05/18 05:26:46;;;;;;;7.93;2.80;;;16.80;46.50;;;;;;20936466;28;20064;-69
2021/05/18 05:36:48;;;;;;;5.17;1.50;;;16.70;47.20;;;;;;20936521;28;20448;-68
2021/05/18 05:46:49;;;;;;;6.68;1.98;;;16.70;47.40;;;;;;20937669;28;20052;-67
2021/05/18 05:56:50;;;;;;;4.18;2.85;;;16.70;48.00;;;;;;20939299;28;20052;-66
2021/05/18 06:06:53;;;;;;;7.00;2.25;;;16.70;48.10;;;;;;20924373;28;20056;-69
2021/05/18 06:47:38;;;;;;;11.70;2.88;;;17.40;46.40;;;;;;20920398;28;20057;-70
2021/05/18 06:57:42;;;;;;;8.73;2.80;;;18.30;43.90;;;;;;20922788;28;20045;-69
2021/05/18 07:07:46;;;;;;;7.03;2.95;;;18.70;42.80;;;;;;20920468;28;20430;-70
2021/05/18 07:17:47;;;;;;;12.00;3.33;;;19.00;42.40;;;;;;20918039;28;20067;-69
2021/05/18 07:27:49;;;;;;;6.63;2.78;;;19.70;40.50;;;;;;20917221;28;20532;-64
2021/05/18 07:37:50;;;;;;;10.57;2.70;;;20.70;38.20;;;;;;20916998;28;20477;-65
2021/05/18 07:47:58;;;;;;;8.30;2.53;;;21.30;36.40;;;;;;20915337;28;20409;-68
2021/05/18 08:08:20;;;;;;;8.25;2.72;;;22.40;34.90;;;;;;20914178;28;20539;-69
2021/05/18 10:43:05;;;;;;;4.03;0.75;;;25.60;31.70;;;;;;20855694;28;20500;-67
2021/05/18 10:53:27;;;;;;;3.17;0.98;;;25.90;31.00;;;;;;20870506;28;20086;-59
2021/05/18 11:03:28;;;;;;;2.47;1.23;;;25.90;30.80;;;;;;20918429;28;20489;-66
2021/05/18 11:13:30;;;;;;;6.97;1.10;;;25.90;31.10;;;;;;20917915;28;20408;-63
2021/05/18 11:23:33;;;;;;;1.73;0.88;;;26.20;30.70;;;;;;20916265;28;20405;-56
2021/05/18 11:33:42;;;;;;;4.60;1.17;;;26.20;30.40;;;;;;20916032;28;20520;-61
2021/05/18 11:43:49;;;;;;;4.35;1.73;;;26.20;30.50;;;;;;20916190;28;20173;-64
2021/05/18 11:53:52;;;;;;;3.67;1.42;;;26.10;29.90;;;;;;20909075;28;20060;-65
2021/05/18 12:04:08;;;;;;;3.28;0.88;;;26.30;30.00;;;;;;20914013;28;20049;-61
2021/05/18 12:14:11;;;;;;;3.58;1.70;;;26.70;28.80;;;;;;20913131;28;20141;-62
2021/05/18 12:24:19;;;;;;;3.65;1.50;;;26.60;29.50;;;;;;20912410;28;20095;-62
2021/05/18 12:34:29;;;;;;;4.68;1.15;;;26.80;29.00;;;;;;20912458;28;20056;-62
2021/05/18 12:44:47;;;;;;;1.85;0.80;;;27.60;28.20;;;;;;20911826;28;20489;-62
2021/05/18 12:54:56;;;;;;;3.42;2.05;;;27.20;28.50;;;;;;20911185;28;20053;-63
2021/05/18 13:05:10;;;;;;;2.67;0.98;;;27.30;28.90;;;;;;20911891;28;20150;-64
2021/05/18 13:15:18;;;;;;;2.90;0.98;;;27.50;28.30;;;;;;20923272;28;20405;-63
2021/05/18 13:35:40;;;;;;;6.13;1.50;;;27.90;29.20;;;;;;20926125;28;20061;-62
2021/05/18 13:45:41;;;;;;;3.70;1.17;;;27.80;29.50;;;;;;20925433;28;20052;-63
2021/05/18 13:55:42;;;;;;;;;;;27.70;30.10;;;;;;20925360;28;20055;-63
2021/05/18 14:05:43;;;;;;;4.67;1.00;;;27.70;29.80;;;;;;20924150;28;19963;-66
2021/05/18 14:15:45;;;;;;;;;;;27.80;29.90;;;;;;20923416;28;20045;-63
2021/05/18 14:25:46;;;;;;;1.47;0.90;;;28.10;30.00;;;;;;20921137;28;19921;-62
2021/05/18 14:35:48;;;;;;;3.58;1.27;;;28.10;30.10;;;;;;20921847;28;20052;-64
2021/05/18 14:45:52;;;;;;;3.95;1.20;;;28.50;29.50;;;;;;20921408;28;20538;-63
2021/05/18 14:55:53;;;;;;;2.22;1.00;;;28.10;30.10;;;;;;20920499;28;20053;-62
2021/05/18 15:05:54;;;;;;;3.80;1.25;;;28.20;30.10;;;;;;20918285;28;20154;-62
2021/05/18 15:15:55;;;;;;;2.53;1.05;;;28.10;30.50;;;;;;20918715;28;20076;-63
2021/05/18 15:25:57;;;;;;;3.70;1.10;;;28.20;30.60;;;;;;20917218;28;20045;-64
2021/05/18 15:35:59;;;;;;;3.13;0.98;;;28.10;31.50;;;;;;20883403;28;20085;-61
2021/05/18 15:46:01;;;;;;;5.60;1.00;;;27.80;32.20;;;;;;20833457;28;20418;-60
2021/05/18 15:56:04;;;;;;;2.78;1.05;;;27.80;32.80;;;;;;20832406;28;20410;-62
2021/05/18 16:06:06;;;;;;;1.80;1.35;;;27.60;33.10;;;;;;20835160;28;20132;-60
2021/05/18 16:16:13;;;;;;;2.78;0.80;;;27.50;33.40;;;;;;20913658;28;20098;-63
2021/05/18 16:26:15;;;;;;;2.45;0.73;;;27.50;33.00;;;;;;20912143;28;20136;-70
2021/05/18 16:36:17;;;;;;;3.65;1.13;;;27.20;31.90;;;;;;20911350;28;20060;-71
2021/05/18 16:46:18;;;;;;;1.45;0.75;;;26.90;31.40;;;;;;20908240;28;20088;-61
2021/05/18 16:56:20;;;;;;;;;;;26.80;31.80;;;;;;20910894;28;20084;-62
2021/05/18 17:06:21;;;;;;;2.85;0.60;;;26.50;31.90;;;;;;20909513;28;19921;-64
2021/05/18 17:16:22;;;;;;;2.25;0.80;;;26.30;32.30;;;;;;20908625;28;20129;-62
2021/05/18 17:26:25;;;;;;;1.60;0.80;;;26.40;32.20;;;;;;20908477;28;20049;-61
2021/05/18 17:36:27;;;;;;;4.80;0.60;;;26.20;32.50;;;;;;20908628;28;20541;-62
2021/05/18 17:46:33;;;;;;;1.63;0.60;;;25.90;32.50;;;;;;20908895;28;20053;-69
2021/05/18 17:56:34;;;;;;;23.05;1.60;;;26.10;32.20;;;;;;20913339;28;20077;-63
2021/05/18 18:06:35;;;;;;;1.70;0.77;;;26.10;32.50;;;;;;20925040;28;20049;-67
2021/05/18 18:16:36;;;;;;;1.80;0.80;;;25.90;32.50;;;;;;20922971;28;20084;-69
2021/05/18 18:26:38;;;;;;;2.28;0.70;;;25.90;32.80;;;;;;20921614;28;20132;-67
2021/05/18 18:36:43;;;;;;;3.33;0.80;;;25.70;33.20;;;;;;20921349;28;20049;-68
2021/05/18 18:46:45;;;;;;;3.08;0.70;;;25.60;33.90;;;;;;20920161;28;20081;-67
2021/05/18 18:56:46;;;;;;;1.45;0.60;;;25.30;34.40;;;;;;20920241;28;20081;-69
2021/05/18 19:16:56;;;;;;;2.38;0.70;;;24.80;35.90;;;;;;20919070;28;20080;-69
2021/05/18 19:26:58;;;;;;;2.15;0.73;;;24.60;36.50;;;;;;20917906;28;20080;-69
2021/05/18 19:57:37;;;;;;;2.97;0.43;;;24.00;37.90;;;;;;20743126;28;20440;-70
2021/05/18 20:28:20;;;;;;;2.13;1.13;;;23.30;38.60;;;;;;20793416;28;20064;-70
2021/05/18 20:48:29;;;;;;;2.70;1.05;;;23.10;39.10;;;;;;20915847;28;20317;-68
2021/05/18 20:58:30;;;;;;;1.05;0.77;;;23.00;39.40;;;;;;20913479;28;20053;-71
2021/05/18 21:18:35;;;;;;;1.33;0.95;;;22.70;40.50;;;;;;20910781;28;20079;-67
2021/05/18 21:28:36;;;;;;;2.30;0.60;;;22.60;41.40;;;;;;20913683;28;20095;-72
2021/05/18 21:38:38;;;;;;;2.28;0.80;;;22.40;41.80;;;;;;20946266;28;20418;-71
2021/05/18 21:48:39;;;;;;;1.60;0.60;;;22.30;41.70;;;;;;20926418;28;20585;-70
2021/05/18 21:58:41;;;;;;;1.38;0.60;;;22.10;41.70;;;;;;20925383;28;20130;-69
2021/05/18 22:08:47;;;;;;;1.23;0.68;;;22.00;41.70;;;;;;20925001;28;20085;-69
2021/05/18 22:29:10;;;;;;;1.35;0.70;;;21.70;41.70;;;;;;20923481;28;20084;-69
2021/05/18 22:39:11;;;;;;;;;;;21.60;42.00;;;;;;20923503;28;20084;-69
2021/05/18 22:49:12;;;;;;;5.40;0.60;;;21.40;41.80;;;;;;20920037;28;19927;-68
2021/05/18 22:59:13;;;;;;;1.08;0.50;;;21.30;41.80;;;;;;20921726;28;20186;-67
2021/05/18 23:09:15;;;;;;;4.43;1.27;;;21.20;41.60;;;;;;20919287;28;20084;-68
2021/05/18 23:19:16;;;;;;;0.82;0.60;;;21.10;41.30;;;;;;20919141;28;20049;-67
2021/05/18 23:29:17;;;;;;;1.48;0.75;;;20.90;40.80;;;;;;20917414;28;20052;-67
2021/05/18 23:39:19;;;;;;;3.05;1.00;;;20.80;38.90;;;;;;20917451;28;20056;-68
2021/05/18 23:49:20;;;;;;;2.50;0.80;;;20.70;38.70;;;;;;20918621;28;20085;-66
2021/05/18 23:59:21;;;;;;;2.10;0.70;;;20.50;38.90;;;;;;20915984;28;20045;-68
